sensor_id;sensor_type;location;lat;lon;timestamp;pressure;altitude;pressure_sealevel;temperature;humidity
55010;BME280;40903;51.638;7.528;2024-02-21T00:01:39;101720.06;;;9.12;100.00
55010;BME280;40903;51.638;7.528;2024-02-21T00:04:04;101720.28;;;9.11;100.00
55010;BME280;40903;51.638;7.528;2024-02-21T00:06:30;101717.84;;;9.09;100.00
55010;BME280;40903;51.638;7.528;2024-02-21T00:08:55;101713.22;;;9.10;100.00
55010;BME280;40903;51.638;7.528;2024-02-21T00:11:21;101708.31;;;9.12;100.00
55010;BME280;40903;51.638;7.528;2024-02-21T00:13:46;101699.84;;;9.08;100.00
55010;BME280;40903;51.638;7.528;2024-02-21T00:16:12;101703.94;;;9.06;100.00
55010;BME280;40903;51.638;7.528;2024-02-21T00:18:38;101686.75;;;9.05;100.00
55010;BME280;40903;51.638;7.528;2024-02-21T00:21:04;101684.88;;;9.06;100.00
55010;BME280;40903;51.638;7.528;2024-02-21T00:23:30;101679.69;;;9.04;100.00
55010;BME280;40903;51.638;7.528;2024-02-21T00:25:55;101676.97;;;9.04;100.00
55010;BME280;40903;51.638;7.528;2024-02-21T00:28:21;101664.75;;;9.07;100.00
55010;BME280;40903;51.638;7.528;2024-02-21T00:30:46;101669.34;;;9.06;100.00
55010;BME280;40903;51.638;7.528;2024-02-21T00:33:13;101649.81;;;9.09;100.00
55010;BME280;40903;51.638;7.528;2024-02-21T00:35:39;101654.44;;;9.09;100.00
55010;BME280;40903;51.638;7.528;2024-02-21T00:38:05;101647.91;;;9.10;100.00
55010;BME280;40903;51.638;7.528;2024-02-21T00:40:30;101645.72;;;9.07;100.00
55010;BME280;40903;51.638;7.528;2024-02-21T00:42:56;101636.78;;;9.11;100.00
55010;BME280;40903;51.638;7.528;2024-02-21T00:45:21;101648.16;;;9.08;100.00
55010;BME280;40903;51.638;7.528;2024-02-21T00:47:47;101651.41;;;9.05;100.00
55010;BME280;40903;51.638;7.528;2024-02-21T00:50:13;101640.81;;;9.09;100.00
55010;BME280;40903;51.638;7.528;2024-02-21T00:52:38;101641.91;;;9.08;100.00
55010;BME280;40903;51.638;7.528;2024-02-21T00:55:05;101630.78;;;9.09;100.00
55010;BME280;40903;51.638;7.528;2024-02-21T00:57:30;101626.97;;;9.10;100.00
55010;BME280;40903;51.638;7.528;2024-02-21T00:59:57;101631.03;;;9.08;100.00
55010;BME280;40903;51.638;7.528;2024-02-21T01:02:22;101632.66;;;9.09;100.00
55010;BME280;40903;51.638;7.528;2024-02-21T01:04:48;101617.47;;;9.13;100.00
55010;BME280;40903;51.638;7.528;2024-02-21T01:07:13;101611.72;;;9.09;100.00
55010;BME280;40903;51.638;7.528;2024-02-21T01:09:39;101611.97;;;9.08;100.00
55010;BME280;40903;51.638;7.528;2024-02-21T01:12:04;101619.84;;;9.04;100.00
55010;BME280;40903;51.638;7.528;2024-02-21T01:14:30;101607.31;;;9.03;100.00
55010;BME280;40903;51.638;7.528;2024-02-21T01:16:55;101610.03;;;9.03;100.00
55010;BME280;40903;51.638;7.528;2024-02-21T01:19:21;101608.94;;;9.04;100.00
55010;BME280;40903;51.638;7.528;2024-02-21T01:21:46;101607.88;;;9.05;100.00
55010;BME280;40903;51.638;7.528;2024-02-21T01:24:12;101600.00;;;9.09;100.00
55010;BME280;40903;51.638;7.528;2024-02-21T01:26:37;101599.72;;;9.05;100.00
55010;BME280;40903;51.638;7.528;2024-02-21T01:29:03;101595.63;;;9.03;100.00
55010;BME280;40903;51.638;7.528;2024-02-21T01:31:28;101586.06;;;9.00;100.00
55010;BME280;40903;51.638;7.528;2024-02-21T01:33:54;101572.25;;;9.07;100.00
55010;BME280;40903;51.638;7.528;2024-02-21T01:36:20;101571.38;;;9.01;100.00
55010;BME280;40903;51.638;7.528;2024-02-21T01:38:46;101571.91;;;8.98;100.00
55010;BME280;40903;51.638;7.528;2024-02-21T01:41:12;101577.03;;;8.95;100.00
55010;BME280;40903;51.638;7.528;2024-02-21T01:43:37;101580.84;;;8.94;100.00
55010;BME280;40903;51.638;7.528;2024-02-21T01:46:03;101576.22;;;8.94;100.00
55010;BME280;40903;51.638;7.528;2024-02-21T01:48:29;101582.78;;;8.98;100.00
55010;BME280;40903;51.638;7.528;2024-02-21T01:50:55;101576.81;;;9.01;100.00
55010;BME280;40903;51.638;7.528;2024-02-21T01:53:30;101565.94;;;9.01;100.00
55010;BME280;40903;51.638;7.528;2024-02-21T01:55:57;101558.31;;;8.98;100.00
55010;BME280;40903;51.638;7.528;2024-02-21T01:58:23;101556.91;;;8.96;100.00
55010;BME280;40903;51.638;7.528;2024-02-21T02:00:50;101565.91;;;8.96;100.00
55010;BME280;40903;51.638;7.528;2024-02-21T02:03:15;101560.72;;;8.95;100.00
55010;BME280;40903;51.638;7.528;2024-02-21T02:05:45;101556.13;;;8.95;100.00
55010;BME280;40903;51.638;7.528;2024-02-21T02:08:15;101548.50;;;8.97;100.00
55010;BME280;40903;51.638;7.528;2024-02-21T02:10:41;101556.41;;;8.99;100.00
55010;BME280;40903;51.638;7.528;2024-02-21T02:13:07;101555.59;;;8.98;100.00
55010;BME280;40903;51.638;7.528;2024-02-21T02:18:05;101543.06;;;8.97;100.00
55010;BME280;40903;51.638;7.528;2024-02-21T02:20:30;101546.34;;;8.99;100.00
55010;BME280;40903;51.638;7.528;2024-02-21T02:22:58;101531.88;;;8.94;100.00
55010;BME280;40903;51.638;7.528;2024-02-21T02:25:25;101530.00;;;8.94;100.00
55010;BME280;40903;51.638;7.528;2024-02-21T02:27:51;101536.78;;;8.97;100.00
55010;BME280;40903;51.638;7.528;2024-02-21T02:30:17;101534.91;;;8.97;100.00
55010;BME280;40903;51.638;7.528;2024-02-21T02:32:46;101512.88;;;8.99;100.00
55010;BME280;40903;51.638;7.528;2024-02-21T02:35:12;101512.31;;;8.97;100.00
55010;BME280;40903;51.638;7.528;2024-02-21T02:37:37;101510.97;;;8.94;100.00
55010;BME280;40903;51.638;7.528;2024-02-21T02:40:06;101506.63;;;8.98;100.00
55010;BME280;40903;51.638;7.528;2024-02-21T02:42:31;101500.06;;;8.94;100.00
55010;BME280;40903;51.638;7.528;2024-02-21T02:44:57;101498.47;;;8.98;100.00
55010;BME280;40903;51.638;7.528;2024-02-21T02:47:23;101499.25;;;8.94;100.00
55010;BME280;40903;51.638;7.528;2024-02-21T02:49:48;101488.59;;;8.92;100.00
55010;BME280;40903;51.638;7.528;2024-02-21T02:52:16;101482.09;;;8.93;100.00
55010;BME280;40903;51.638;7.528;2024-02-21T02:54:43;101473.09;;;8.88;100.00
55010;BME280;40903;51.638;7.528;2024-02-21T03:00:27;101471.69;;;8.80;100.00
55010;BME280;40903;51.638;7.528;2024-02-21T03:02:53;101466.25;;;8.80;100.00
55010;BME280;40903;51.638;7.528;2024-02-21T03:05:20;101463.25;;;8.82;100.00
55010;BME280;40903;51.638;7.528;2024-02-21T03:07:47;101465.66;;;8.78;100.00
55010;BME280;40903;51.638;7.528;2024-02-21T03:10:13;101465.38;;;8.75;100.00
55010;BME280;40903;51.638;7.528;2024-02-21T03:12:39;101451.25;;;8.78;100.00
55010;BME280;40903;51.638;7.528;2024-02-21T03:15:06;101460.19;;;8.73;100.00
55010;BME280;40903;51.638;7.528;2024-02-21T03:17:32;101460.97;;;8.69;100.00
55010;BME280;40903;51.638;7.528;2024-02-21T03:19:59;101468.00;;;8.65;100.00
55010;BME280;40903;51.638;7.528;2024-02-21T03:22:25;101459.59;;;8.66;100.00
55010;BME280;40903;51.638;7.528;2024-02-21T03:24:50;101451.47;;;8.71;100.00
55010;BME280;40903;51.638;7.528;2024-02-21T03:27:16;101446.28;;;8.70;100.00
55010;BME280;40903;51.638;7.528;2024-02-21T03:29:42;101446.00;;;8.66;100.00
55010;BME280;40903;51.638;7.528;2024-02-21T03:32:08;101450.34;;;8.67;100.00
55010;BME280;40903;51.638;7.528;2024-02-21T03:34:33;101451.44;;;8.66;100.00
55010;BME280;40903;51.638;7.528;2024-02-21T03:36:59;101456.59;;;8.68;100.00
55010;BME280;40903;51.638;7.528;2024-02-21T03:39:25;101455.78;;;8.67;100.00
55010;BME280;40903;51.638;7.528;2024-02-21T03:41:50;101453.63;;;8.69;100.00
55010;BME280;40903;51.638;7.528;2024-02-21T03:44:16;101441.13;;;8.68;100.00
55010;BME280;40903;51.638;7.528;2024-02-21T03:46:42;101444.19;;;8.77;100.00
55010;BME280;40903;51.638;7.528;2024-02-21T03:49:07;101427.59;;;8.78;100.00
55010;BME280;40903;51.638;7.528;2024-02-21T03:51:33;101440.13;;;8.79;100.00
55010;BME280;40903;51.638;7.528;2024-02-21T03:53:58;101433.31;;;8.77;100.00
55010;BME280;40903;51.638;7.528;2024-02-21T03:56:24;101452.06;;;8.78;100.00
55010;BME280;40903;51.638;7.528;2024-02-21T03:58:50;101443.09;;;8.78;100.00
55010;BME280;40903;51.638;7.528;2024-02-21T04:01:15;101446.63;;;8.78;100.00
55010;BME280;40903;51.638;7.528;2024-02-21T04:03:44;101456.16;;;8.81;100.00
55010;BME280;40903;51.638;7.528;2024-02-21T04:06:10;101453.19;;;8.82;100.00
55010;BME280;40903;51.638;7.528;2024-02-21T04:08:36;101459.97;;;8.80;100.00
55010;BME280;40903;51.638;7.528;2024-02-21T04:11:01;101461.91;;;8.84;100.00
55010;BME280;40903;51.638;7.528;2024-02-21T04:13:27;101469.50;;;8.82;100.00
55010;BME280;40903;51.638;7.528;2024-02-21T04:15:52;101464.63;;;8.84;100.00
55010;BME280;40903;51.638;7.528;2024-02-21T04:18:18;101469.50;;;8.82;100.00
55010;BME280;40903;51.638;7.528;2024-02-21T04:20:43;101460.00;;;8.85;100.00
55010;BME280;40903;51.638;7.528;2024-02-21T04:23:09;101452.38;;;8.82;100.00
55010;BME280;40903;51.638;7.528;2024-02-21T04:25:34;101449.13;;;8.85;100.00
55010;BME280;40903;51.638;7.528;2024-02-21T04:28:00;101448.63;;;8.93;100.00
55010;BME280;40903;51.638;7.528;2024-02-21T04:30:25;101447.00;;;8.92;100.00
55010;BME280;40903;51.638;7.528;2024-02-21T04:32:51;101453.53;;;8.91;100.00
55010;BME280;40903;51.638;7.528;2024-02-21T04:35:17;101450.53;;;8.92;100.00
55010;BME280;40903;51.638;7.528;2024-02-21T04:37:42;101442.09;;;8.89;100.00
55010;BME280;40903;51.638;7.528;2024-02-21T04:40:08;101448.03;;;8.86;100.00
55010;BME280;40903;51.638;7.528;2024-02-21T04:42:34;101440.72;;;8.91;100.00
55010;BME280;40903;51.638;7.528;2024-02-21T04:45:00;101442.91;;;8.89;100.00
55010;BME280;40903;51.638;7.528;2024-02-21T04:47:25;101451.34;;;8.88;100.00
55010;BME280;40903;51.638;7.528;2024-02-21T04:49:51;101449.97;;;8.90;100.00
55010;BME280;40903;51.638;7.528;2024-02-21T04:52:17;101438.00;;;8.91;100.00
55010;BME280;40903;51.638;7.528;2024-02-21T04:54:42;101438.84;;;8.92;100.00
55010;BME280;40903;51.638;7.528;2024-02-21T04:57:08;101431.50;;;8.92;100.00
55010;BME280;40903;51.638;7.528;2024-02-21T04:59:35;101429.06;;;8.91;100.00
55010;BME280;40903;51.638;7.528;2024-02-21T05:02:01;101420.63;;;8.92;100.00
55010;BME280;40903;51.638;7.528;2024-02-21T05:04:27;101429.34;;;8.94;100.00
55010;BME280;40903;51.638;7.528;2024-02-21T05:06:52;101430.16;;;8.95;100.00
55010;BME280;40903;51.638;7.528;2024-02-21T05:09:18;101426.06;;;8.92;100.00
55010;BME280;40903;51.638;7.528;2024-02-21T05:11:43;101436.94;;;8.92;100.00
55010;BME280;40903;51.638;7.528;2024-02-21T05:14:09;101431.00;;;8.95;100.00
55010;BME280;40903;51.638;7.528;2024-02-21T05:16:34;101428.00;;;8.97;100.00
55010;BME280;40903;51.638;7.528;2024-02-21T05:19:00;101432.34;;;8.98;100.00
55010;BME280;40903;51.638;7.528;2024-02-21T05:21:26;101432.63;;;8.96;100.00
55010;BME280;40903;51.638;7.528;2024-02-21T05:23:56;101421.69;;;8.91;100.00
55010;BME280;40903;51.638;7.528;2024-02-21T05:26:25;101423.63;;;8.96;100.00
55010;BME280;40903;51.638;7.528;2024-02-21T05:28:51;101406.75;;;8.94;100.00
55010;BME280;40903;51.638;7.528;2024-02-21T05:31:17;101411.94;;;8.95;100.00
55010;BME280;40903;51.638;7.528;2024-02-21T05:33:44;101409.47;;;8.94;100.00
55010;BME280;40903;51.638;7.528;2024-02-21T05:36:10;101407.28;;;8.91;100.00
55010;BME280;40903;51.638;7.528;2024-02-21T05:38:36;101408.66;;;8.93;100.00
55010;BME280;40903;51.638;7.528;2024-02-21T05:41:01;101408.94;;;8.92;100.00
55010;BME280;40903;51.638;7.528;2024-02-21T05:43:27;101407.28;;;8.91;100.00
55010;BME280;40903;51.638;7.528;2024-02-21T05:45:52;101403.19;;;8.88;100.00
55010;BME280;40903;51.638;7.528;2024-02-21T05:48:19;101415.16;;;8.92;100.00
55010;BME280;40903;51.638;7.528;2024-02-21T05:50:45;101410.25;;;8.89;100.00
55010;BME280;40903;51.638;7.528;2024-02-21T05:53:10;101403.75;;;8.90;100.00
55010;BME280;40903;51.638;7.528;2024-02-21T05:55:36;101405.66;;;8.90;100.00
55010;BME280;40903;51.638;7.528;2024-02-21T05:58:02;101410.31;;;8.94;100.00
55010;BME280;40903;51.638;7.528;2024-02-21T06:00:28;101403.22;;;8.93;100.00
55010;BME280;40903;51.638;7.528;2024-02-21T06:02:54;101394.78;;;8.95;100.00
55010;BME280;40903;51.638;7.528;2024-02-21T06:05:19;101383.91;;;8.95;100.00
55010;BME280;40903;51.638;7.528;2024-02-21T06:07:45;101392.84;;;8.90;100.00
55010;BME280;40903;51.638;7.528;2024-02-21T06:10:10;101385.84;;;8.94;100.00
55010;BME280;40903;51.638;7.528;2024-02-21T06:12:36;101383.66;;;8.96;100.00
55010;BME280;40903;51.638;7.528;2024-02-21T06:15:01;101377.16;;;8.97;100.00
55010;BME280;40903;51.638;7.528;2024-02-21T06:17:27;101383.38;;;8.93;100.00
55010;BME280;40903;51.638;7.528;2024-02-21T06:19:52;101369.78;;;8.93;100.00
55010;BME280;40903;51.638;7.528;2024-02-21T06:22:18;101363.53;;;8.97;100.00
55010;BME280;40903;51.638;7.528;2024-02-21T06:24:43;101361.06;;;8.96;100.00
55010;BME280;40903;51.638;7.528;2024-02-21T06:27:09;101369.53;;;8.94;100.00
55010;BME280;40903;51.638;7.528;2024-02-21T06:29:36;101356.47;;;8.96;100.00
55010;BME280;40903;51.638;7.528;2024-02-21T06:32:02;101356.41;;;8.91;100.00
55010;BME280;40903;51.638;7.528;2024-02-21T06:34:28;101353.19;;;8.94;100.00
55010;BME280;40903;51.638;7.528;2024-02-21T06:36:53;101351.53;;;8.93;100.00
55010;BME280;40903;51.638;7.528;2024-02-21T06:39:19;101343.94;;;8.95;100.00
55010;BME280;40903;51.638;7.528;2024-02-21T06:41:44;101333.06;;;8.95;100.00
55010;BME280;40903;51.638;7.528;2024-02-21T06:44:10;101337.94;;;8.93;100.00
55010;BME280;40903;51.638;7.528;2024-02-21T06:46:36;101326.81;;;8.95;100.00
55010;BME280;40903;51.638;7.528;2024-02-21T06:49:02;101334.66;;;8.91;100.00
55010;BME280;40903;51.638;7.528;2024-02-21T06:51:29;101317.25;;;8.92;100.00
55010;BME280;40903;51.638;7.528;2024-02-21T06:53:55;101317.84;;;8.94;100.00
55010;BME280;40903;51.638;7.528;2024-02-21T06:56:22;101319.47;;;8.95;100.00
55010;BME280;40903;51.638;7.528;2024-02-21T06:58:52;101320.28;;;8.96;100.00
55010;BME280;40903;51.638;7.528;2024-02-21T07:01:17;101321.09;;;8.96;100.00
55010;BME280;40903;51.638;7.528;2024-02-21T07:03:43;101322.22;;;9.00;100.00
55010;BME280;40903;51.638;7.528;2024-02-21T07:06:08;101323.84;;;9.01;100.00
55010;BME280;40903;51.638;7.528;2024-02-21T07:08:33;101319.19;;;8.97;100.00
55010;BME280;40903;51.638;7.528;2024-02-21T07:10:59;101326.00;;;8.99;100.00
55010;BME280;40903;51.638;7.528;2024-02-21T07:13:25;101319.75;;;8.99;100.00
55010;BME280;40903;51.638;7.528;2024-02-21T07:15:50;101327.13;;;9.03;100.00
55010;BME280;40903;51.638;7.528;2024-02-21T07:18:15;101324.09;;;9.00;100.00
55010;BME280;40903;51.638;7.528;2024-02-21T07:20:41;101320.28;;;9.01;100.00
55010;BME280;40903;51.638;7.528;2024-02-21T07:23:08;101322.22;;;9.05;100.00
55010;BME280;40903;51.638;7.528;2024-02-21T07:25:33;101317.63;;;9.11;100.00
55010;BME280;40903;51.638;7.528;2024-02-21T07:27:59;101323.91;;;9.11;100.00
55010;BME280;40903;51.638;7.528;2024-02-21T07:30:24;101323.06;;;9.16;100.00
55010;BME280;40903;51.638;7.528;2024-02-21T07:32:50;101322.28;;;9.15;100.00
55010;BME280;40903;51.638;7.528;2024-02-21T07:35:20;101323.91;;;9.16;100.00
55010;BME280;40903;51.638;7.528;2024-02-21T07:37:45;101308.69;;;9.20;100.00
55010;BME280;40903;51.638;7.528;2024-02-21T07:40:15;101310.31;;;9.21;100.00
55010;BME280;40903;51.638;7.528;2024-02-21T07:42:41;101310.59;;;9.25;100.00
55010;BME280;40903;51.638;7.528;2024-02-21T07:45:09;101308.44;;;9.27;100.00
55010;BME280;40903;51.638;7.528;2024-02-21T07:47:35;101301.66;;;9.29;100.00
55010;BME280;40903;51.638;7.528;2024-02-21T07:50:02;101301.66;;;9.29;100.00
55010;BME280;40903;51.638;7.528;2024-02-21T07:52:28;101303.56;;;9.34;100.00
55010;BME280;40903;51.638;7.528;2024-02-21T07:54:53;101301.41;;;9.36;100.00
55010;BME280;40903;51.638;7.528;2024-02-21T07:57:19;101307.13;;;9.39;100.00
55010;BME280;40903;51.638;7.528;2024-02-21T07:59:44;101288.59;;;9.36;100.00
55010;BME280;40903;51.638;7.528;2024-02-21T08:02:13;101288.34;;;9.38;100.00
55010;BME280;40903;51.638;7.528;2024-02-21T08:04:39;101282.06;;;9.37;100.00
55010;BME280;40903;51.638;7.528;2024-02-21T08:07:04;101276.66;;;9.42;100.00
55010;BME280;40903;51.638;7.528;2024-02-21T08:09:30;101276.09;;;9.45;100.00
55010;BME280;40903;51.638;7.528;2024-02-21T08:11:55;101269.56;;;9.46;100.00
55010;BME280;40903;51.638;7.528;2024-02-21T08:14:24;101269.56;;;9.46;100.00
55010;BME280;40903;51.638;7.528;2024-02-21T08:16:53;101265.50;;;9.49;100.00
55010;BME280;40903;51.638;7.528;2024-02-21T08:19:20;101264.97;;;9.47;100.00
55010;BME280;40903;51.638;7.528;2024-02-21T08:21:45;101266.84;;;9.46;100.00
55010;BME280;40903;51.638;7.528;2024-02-21T08:24:14;101258.69;;;9.46;100.00
55010;BME280;40903;51.638;7.528;2024-02-21T08:26:43;101258.97;;;9.55;100.00
55010;BME280;40903;51.638;7.528;2024-02-21T08:29:10;101257.88;;;9.56;100.00
55010;BME280;40903;51.638;7.528;2024-02-21T08:31:36;101252.72;;;9.59;100.00
55010;BME280;40903;51.638;7.528;2024-02-21T08:34:02;101235.03;;;9.62;100.00
55010;BME280;40903;51.638;7.528;2024-02-21T08:36:32;101244.00;;;9.67;100.00
55010;BME280;40903;51.638;7.528;2024-02-21T08:38:59;101231.47;;;9.76;100.00
55010;BME280;40903;51.638;7.528;2024-02-21T08:41:24;101242.63;;;9.74;100.00
55010;BME280;40903;51.638;7.528;2024-02-21T08:43:51;101228.50;;;9.77;100.00
55010;BME280;40903;51.638;7.528;2024-02-21T08:46:17;101236.13;;;9.80;100.00
55010;BME280;40903;51.638;7.528;2024-02-21T08:48:43;101234.72;;;9.83;100.00
55010;BME280;40903;51.638;7.528;2024-02-21T08:51:12;101236.38;;;9.79;100.00
55010;BME280;40903;51.638;7.528;2024-02-21T08:53:37;101227.13;;;9.80;100.00
55010;BME280;40903;51.638;7.528;2024-02-21T08:56:03;101225.50;;;9.84;100.00
55010;BME280;40903;51.638;7.528;2024-02-21T08:58:29;101227.38;;;9.88;100.00
55010;BME280;40903;51.638;7.528;2024-02-21T09:00:54;101223.31;;;9.91;100.00
55010;BME280;40903;51.638;7.528;2024-02-21T09:03:20;101217.31;;;9.94;100.00
55010;BME280;40903;51.638;7.528;2024-02-21T09:05:46;101211.31;;;9.97;100.00
55010;BME280;40903;51.638;7.528;2024-02-21T09:08:12;101213.25;;;10.01;100.00
55010;BME280;40903;51.638;7.528;2024-02-21T09:10:39;101215.69;;;10.08;100.00
55010;BME280;40903;51.638;7.528;2024-02-21T09:13:04;101218.94;;;10.10;100.00
55010;BME280;40903;51.638;7.528;2024-02-21T09:15:30;101204.75;;;10.13;100.00
55010;BME280;40903;51.638;7.528;2024-02-21T09:17:57;101202.03;;;10.13;100.00
55010;BME280;40903;51.638;7.528;2024-02-21T09:20:22;101200.44;;;10.17;100.00
55010;BME280;40903;51.638;7.528;2024-02-21T09:22:47;101190.06;;;10.14;100.00
55010;BME280;40903;51.638;7.528;2024-02-21T09:25:13;101192.25;;;10.07;100.00
55010;BME280;40903;51.638;7.528;2024-02-21T09:27:39;101202.59;;;9.95;100.00
55010;BME280;40903;51.638;7.528;2024-02-21T09:30:05;101192.50;;;9.90;100.00
55010;BME280;40903;51.638;7.528;2024-02-21T09:32:31;101188.97;;;9.90;100.00
55010;BME280;40903;51.638;7.528;2024-02-21T09:34:58;101191.16;;;9.88;100.00
55010;BME280;40903;51.638;7.528;2024-02-21T09:37:24;101188.44;;;9.88;100.00
55010;BME280;40903;51.638;7.528;2024-02-21T09:39:49;101191.16;;;9.88;100.00
55010;BME280;40903;51.638;7.528;2024-02-21T09:42:20;101176.72;;;9.82;100.00
55010;BME280;40903;51.638;7.528;2024-02-21T09:44:47;101173.19;;;9.82;100.00
55010;BME280;40903;51.638;7.528;2024-02-21T09:47:19;101180.28;;;9.68;100.00
55010;BME280;40903;51.638;7.528;2024-02-21T09:49:47;101176.22;;;9.66;100.00
55010;BME280;40903;51.638;7.528;2024-02-21T09:52:14;101181.09;;;9.59;100.00
55010;BME280;40903;51.638;7.528;2024-02-21T09:54:41;101181.94;;;9.59;100.00
55010;BME280;40903;51.638;7.528;2024-02-21T09:57:10;101171.28;;;9.58;100.00
55010;BME280;40903;51.638;7.528;2024-02-21T09:59:37;101180.84;;;9.55;100.00
55010;BME280;40903;51.638;7.528;2024-02-21T10:02:03;101193.34;;;9.51;100.00
55010;BME280;40903;51.638;7.528;2024-02-21T10:04:30;101187.34;;;9.49;100.00
55010;BME280;40903;51.638;7.528;2024-02-21T10:06:56;101188.47;;;9.43;100.00
55010;BME280;40903;51.638;7.528;2024-02-21T10:11:51;101179.75;;;9.46;100.00
55010;BME280;40903;51.638;7.528;2024-02-21T10:14:17;101179.47;;;9.38;100.00
55010;BME280;40903;51.638;7.528;2024-02-21T10:16:43;101169.91;;;9.35;100.00
55010;BME280;40903;51.638;7.528;2024-02-21T10:19:19;101173.47;;;9.36;100.00
55010;BME280;40903;51.638;7.528;2024-02-21T10:24:29;101166.13;;;9.36;100.00
55010;BME280;40903;51.638;7.528;2024-02-21T10:27:05;101166.94;;;9.42;100.00
55010;BME280;40903;51.638;7.528;2024-02-21T10:29:33;101164.75;;;9.39;100.00
55010;BME280;40903;51.638;7.528;2024-02-21T10:34:35;101155.78;;;9.33;100.00
55010;BME280;40903;51.638;7.528;2024-02-21T10:37:05;101152.50;;;9.31;100.00
55010;BME280;40903;51.638;7.528;2024-02-21T10:39:32;101147.63;;;9.28;100.00
55010;BME280;40903;51.638;7.528;2024-02-21T10:42:03;101142.19;;;9.28;100.00
55010;BME280;40903;51.638;7.528;2024-02-21T10:44:30;101141.63;;;9.31;100.00
55010;BME280;40903;51.638;7.528;2024-02-21T10:46:57;101132.91;;;9.29;100.00
55010;BME280;40903;51.638;7.528;2024-02-21T10:49:24;101128.28;;;9.40;100.00
55010;BME280;40903;51.638;7.528;2024-02-21T10:52:20;101124.47;;;9.46;100.00
55010;BME280;40903;51.638;7.528;2024-02-21T10:54:53;101118.22;;;9.55;100.00
55010;BME280;40903;51.638;7.528;2024-02-21T10:57:21;101112.22;;;9.58;100.00
55010;BME280;40903;51.638;7.528;2024-02-21T10:59:48;101113.03;;;9.64;100.00
55010;BME280;40903;51.638;7.528;2024-02-21T11:02:14;101109.75;;;9.71;100.00
55010;BME280;40903;51.638;7.528;2024-02-21T11:04:41;101094.25;;;9.72;100.00
55010;BME280;40903;51.638;7.528;2024-02-21T11:07:08;101104.03;;;9.68;100.00
55010;BME280;40903;51.638;7.528;2024-02-21T11:09:34;101097.22;;;9.70;100.00
55010;BME280;40903;51.638;7.528;2024-02-21T11:12:04;101084.16;;;9.72;100.00
55010;BME280;40903;51.638;7.528;2024-02-21T11:14:30;101080.59;;;9.77;100.00
55010;BME280;40903;51.638;7.528;2024-02-21T11:17:17;101083.31;;;9.77;100.00
55010;BME280;40903;51.638;7.528;2024-02-21T11:19:43;101069.41;;;9.83;100.00
55010;BME280;40903;51.638;7.528;2024-02-21T11:22:16;101054.69;;;9.89;100.00
55010;BME280;40903;51.638;7.528;2024-02-21T11:24:42;101049.78;;;9.96;100.00
55010;BME280;40903;51.638;7.528;2024-02-21T11:27:22;101042.66;;;10.00;100.00
55010;BME280;40903;51.638;7.528;2024-02-21T11:29:55;101032.88;;;10.04;100.00
55010;BME280;40903;51.638;7.528;2024-02-21T11:32:21;101019.28;;;9.94;100.00
55010;BME280;40903;51.638;7.528;2024-02-21T11:35:03;101006.44;;;9.95;100.00
55010;BME280;40903;51.638;7.528;2024-02-21T11:37:34;100999.06;;;10.00;100.00
55010;BME280;40903;51.638;7.528;2024-02-21T11:40:02;101002.09;;;9.99;100.00
55010;BME280;40903;51.638;7.528;2024-02-21T11:42:29;100997.75;;;10.03;100.00
55010;BME280;40903;51.638;7.528;2024-02-21T11:44:56;100993.31;;;10.12;100.00
55010;BME280;40903;51.638;7.528;2024-02-21T11:47:22;100981.81;;;10.25;100.00
55010;BME280;40903;51.638;7.528;2024-02-21T11:49:48;100962.16;;;10.28;100.00
55010;BME280;40903;51.638;7.528;2024-02-21T11:52:24;100955.59;;;10.34;100.00
55010;BME280;40903;51.638;7.528;2024-02-21T11:54:51;100963.78;;;10.34;100.00
55010;BME280;40903;51.638;7.528;2024-02-21T11:57:18;100955.13;;;10.22;100.00
55010;BME280;40903;51.638;7.528;2024-02-21T11:59:46;100944.19;;;10.27;100.00
55010;BME280;40903;51.638;7.528;2024-02-21T12:02:15;100932.44;;;10.31;100.00
55010;BME280;40903;51.638;7.528;2024-02-21T12:04:41;100924.78;;;10.38;100.00
55010;BME280;40903;51.638;7.528;2024-02-21T12:07:07;100917.38;;;10.39;100.00
55010;BME280;40903;51.638;7.528;2024-02-21T12:09:34;100910.94;;;10.30;100.00
55010;BME280;40903;51.638;7.528;2024-02-21T12:12:01;100910.94;;;10.30;100.00
55010;BME280;40903;51.638;7.528;2024-02-21T12:14:29;100897.00;;;10.31;100.00
55010;BME280;40903;51.638;7.528;2024-02-21T12:16:55;100896.34;;;10.44;100.00
55010;BME280;40903;51.638;7.528;2024-02-21T12:19:21;100890.06;;;10.44;100.00
55010;BME280;40903;51.638;7.528;2024-02-21T12:21:48;100861.06;;;10.58;100.00
55010;BME280;40903;51.638;7.528;2024-02-21T12:26:40;100846.72;;;10.76;100.00
55010;BME280;40903;51.638;7.528;2024-02-21T12:29:06;100837.13;;;10.78;100.00
55010;BME280;40903;51.638;7.528;2024-02-21T12:31:36;100842.78;;;10.87;100.00
55010;BME280;40903;51.638;7.528;2024-02-21T12:34:02;100841.56;;;10.98;100.00
55010;BME280;40903;51.638;7.528;2024-02-21T12:36:27;100826.81;;;10.99;99.66
55010;BME280;40903;51.638;7.528;2024-02-21T12:38:53;100821.84;;;11.06;100.00
55010;BME280;40903;51.638;7.528;2024-02-21T12:41:18;100809.81;;;11.07;99.30
55010;BME280;40903;51.638;7.528;2024-02-21T12:43:44;100807.88;;;11.07;97.61
55010;BME280;40903;51.638;7.528;2024-02-21T12:46:09;100790.84;;;10.97;95.14
55010;BME280;40903;51.638;7.528;2024-02-21T12:48:35;100787.53;;;11.00;96.59
55010;BME280;40903;51.638;7.528;2024-02-21T12:51:00;100764.75;;;11.09;99.97
55010;BME280;40903;51.638;7.528;2024-02-21T12:53:26;100755.75;;;11.09;96.38
55010;BME280;40903;51.638;7.528;2024-02-21T12:55:51;100758.34;;;11.19;97.21
55010;BME280;40903;51.638;7.528;2024-02-21T12:58:17;100759.28;;;11.09;93.99
55010;BME280;40903;51.638;7.528;2024-02-21T13:00:43;100750.81;;;11.11;92.98